createdAt,value
2019-03-04T00:00:03.715Z,926.98
2019-03-04T00:01:35.429Z,927.01
2019-03-04T00:03:07.245Z,927.01
2019-03-04T00:04:39.060Z,927.00
2019-03-04T00:06:10.875Z,927.00
2019-03-04T00:07:42.691Z,927.02
2019-03-04T00:09:14.511Z,926.99
2019-03-04T00:10:46.321Z,927.03
2019-03-04T00:12:18.136Z,927.03
2019-03-04T00:13:49.951Z,927.04
2019-03-04T00:15:21.766Z,927.07
2019-03-04T00:16:53.581Z,927.08
2019-03-04T00:18:25.497Z,927.15
2019-03-04T00:19:57.212Z,927.16
2019-03-04T00:21:29.026Z,927.22
2019-03-04T00:23:00.841Z,927.14
2019-03-04T00:24:32.909Z,927.15
2019-03-04T00:26:04.474Z,927.16
2019-03-04T00:27:36.286Z,927.16
2019-03-04T00:29:08.102Z,927.11
2019-03-04T00:30:39.916Z,927.17
2019-03-04T00:32:11.731Z,927.16
2019-03-04T00:33:43.547Z,927.20
2019-03-04T00:35:15.364Z,927.20
2019-03-04T00:36:47.279Z,927.22
2019-03-04T00:38:18.991Z,927.20
2019-03-04T00:39:50.806Z,927.22
2019-03-04T00:41:22.621Z,927.19
2019-03-04T00:42:54.438Z,927.19
2019-03-04T00:44:26.250Z,927.21
2019-03-04T00:45:58.065Z,927.23
2019-03-04T00:47:29.880Z,927.23
2019-03-04T00:49:01.695Z,927.24
2019-03-04T00:50:33.518Z,927.22
2019-03-04T00:52:05.325Z,927.24
2019-03-04T00:53:37.139Z,927.29
2019-03-04T00:55:09.306Z,927.31
2019-03-04T00:56:40.770Z,927.33
2019-03-04T00:58:12.586Z,927.37
2019-03-04T00:59:44.400Z,927.35
2019-03-04T01:01:16.214Z,927.37
2019-03-04T01:02:48.034Z,927.41
2019-03-04T01:04:19.844Z,927.37
2019-03-04T01:05:51.660Z,927.41
2019-03-04T01:07:23.476Z,927.33
2019-03-04T01:08:55.292Z,927.38
2019-03-04T01:10:27.105Z,927.43
2019-03-04T01:11:58.922Z,927.32
2019-03-04T01:13:30.835Z,927.32
2019-03-04T01:15:02.550Z,927.41
2019-03-04T01:16:34.365Z,927.47
2019-03-04T01:18:06.179Z,927.49
2019-03-04T01:19:37.994Z,927.45
2019-03-04T01:21:09.808Z,927.40
2019-03-04T01:22:41.622Z,927.48
2019-03-04T01:24:35.600Z,927.37
2019-03-04T01:26:06.991Z,927.49
2019-03-04T01:27:38.799Z,927.51
2019-03-04T01:29:10.614Z,927.50
2019-03-04T01:30:42.528Z,927.40
2019-03-04T01:32:14.242Z,927.48
2019-03-04T01:33:46.057Z,927.37
2019-03-04T01:35:17.869Z,927.35
2019-03-04T01:36:49.683Z,927.40
2019-03-04T01:38:21.498Z,927.36
2019-03-04T01:39:53.311Z,927.37
2019-03-04T01:41:25.125Z,927.35
2019-03-04T01:42:56.942Z,927.40
2019-03-04T01:44:28.753Z,927.41
2019-03-04T01:46:00.570Z,927.52
2019-03-04T01:47:32.380Z,927.51
2019-03-04T01:49:04.294Z,927.51
2019-03-04T01:50:36.008Z,927.48
2019-03-04T01:52:07.822Z,927.54
2019-03-04T01:53:39.635Z,927.62
2019-03-04T01:55:11.449Z,927.68
2019-03-04T01:56:43.263Z,927.66
2019-03-04T01:58:15.076Z,927.68
2019-03-04T01:59:46.891Z,927.71
2019-03-04T02:01:18.805Z,927.70
2019-03-04T02:02:50.518Z,927.72
2019-03-04T02:04:22.333Z,927.74
2019-03-04T02:05:54.146Z,927.67
2019-03-04T02:07:26.059Z,927.68
2019-03-04T02:08:57.773Z,927.70
2019-03-04T02:10:29.587Z,927.75
2019-03-04T02:12:01.405Z,927.79
2019-03-04T02:13:33.263Z,927.83
2019-03-04T02:15:05.028Z,927.78
2019-03-04T02:16:36.842Z,927.83
2019-03-04T02:18:08.656Z,927.80
2019-03-04T02:19:40.470Z,927.84
2019-03-04T02:21:12.285Z,927.83
2019-03-04T02:22:44.097Z,927.84
2019-03-04T02:24:15.912Z,927.87
2019-03-04T02:25:47.826Z,927.86
2019-03-04T02:27:19.539Z,927.83
2019-03-04T02:28:51.351Z,927.83
2019-03-04T02:30:23.169Z,927.77
2019-03-04T02:31:54.978Z,927.75
2019-03-04T02:33:26.794Z,927.72
2019-03-04T02:34:58.606Z,927.71
2019-03-04T02:36:30.419Z,927.71
2019-03-04T02:38:02.234Z,927.73
2019-03-04T02:39:34.076Z,927.76
2019-03-04T02:41:05.867Z,927.73
2019-03-04T02:42:37.675Z,927.75
2019-03-04T02:44:09.591Z,927.77
2019-03-04T02:45:41.302Z,927.83
2019-03-04T02:47:13.118Z,927.85
2019-03-04T02:48:44.929Z,927.83
2019-03-04T02:50:16.744Z,927.86
2019-03-04T02:51:48.558Z,927.84
2019-03-04T02:53:20.371Z,927.79
2019-03-04T02:54:52.197Z,927.77
2019-03-04T02:56:23.999Z,927.74
2019-03-04T02:57:55.811Z,927.74
2019-03-04T02:59:27.626Z,927.68
2019-03-04T03:00:59.441Z,927.59
2019-03-04T03:02:31.358Z,927.52
2019-03-04T03:04:03.065Z,927.51
2019-03-04T03:05:34.878Z,927.47
2019-03-04T03:07:06.694Z,927.44
2019-03-04T03:08:38.510Z,927.40
2019-03-04T03:10:10.319Z,927.35
2019-03-04T03:11:42.135Z,927.35
2019-03-04T03:13:13.947Z,927.35
2019-03-04T03:14:45.766Z,927.40
2019-03-04T03:16:17.574Z,927.35
2019-03-04T03:17:49.409Z,927.30
2019-03-04T03:19:21.200Z,927.22
2019-03-04T03:20:53.114Z,927.20
2019-03-04T03:22:24.828Z,927.15
2019-03-04T03:23:59.116Z,927.13
2019-03-04T03:25:28.456Z,927.06
2019-03-04T03:27:00.273Z,927.02
2019-03-04T03:28:32.110Z,926.97
2019-03-04T03:30:03.899Z,926.89
2019-03-04T03:31:35.717Z,926.92
2019-03-04T03:33:07.522Z,926.89
2019-03-04T03:34:39.373Z,926.85
2019-03-04T03:36:11.149Z,926.87
2019-03-04T03:37:42.963Z,926.87
2019-03-04T03:39:14.876Z,926.90
2019-03-04T03:40:46.588Z,926.88
2019-03-04T03:42:19.159Z,926.87
2019-03-04T03:43:50.216Z,926.79
2019-03-04T03:45:22.029Z,926.76
2019-03-04T03:46:53.850Z,926.77
2019-03-04T03:48:25.656Z,926.74
2019-03-04T03:49:57.470Z,926.71
2019-03-04T03:51:29.283Z,926.73
2019-03-04T03:53:01.097Z,926.74
2019-03-04T03:54:32.909Z,926.76
2019-03-04T03:56:04.726Z,926.78
2019-03-04T03:57:36.645Z,926.85
2019-03-04T03:59:08.349Z,926.92
2019-03-04T04:00:40.164Z,926.91
2019-03-04T04:02:11.976Z,926.88
2019-03-04T04:03:43.891Z,926.90
2019-03-04T04:05:15.607Z,926.83
2019-03-04T04:06:47.418Z,926.76
2019-03-04T04:08:19.239Z,926.77
2019-03-04T04:09:51.044Z,926.67
2019-03-04T04:11:22.859Z,926.69
2019-03-04T04:12:54.673Z,926.66
2019-03-04T04:14:29.191Z,926.72
2019-03-04T04:15:58.400Z,926.67
2019-03-04T04:17:30.113Z,926.68
2019-03-04T04:19:01.929Z,926.71
2019-03-04T04:20:33.751Z,926.68
2019-03-04T04:22:05.553Z,926.68
2019-03-04T04:23:37.387Z,926.63
2019-03-04T04:25:09.181Z,926.59
2019-03-04T04:26:40.996Z,926.53
2019-03-04T04:28:12.813Z,926.53
2019-03-04T04:29:44.625Z,926.46
2019-03-04T04:31:16.434Z,926.44
2019-03-04T04:32:48.249Z,926.33
2019-03-04T04:34:20.174Z,926.32
2019-03-04T04:35:51.876Z,926.29
2019-03-04T04:37:23.688Z,926.25
2019-03-04T04:38:55.503Z,926.28
2019-03-04T04:40:27.316Z,926.29
2019-03-04T04:41:59.129Z,926.28
2019-03-04T04:43:30.943Z,926.35
2019-03-04T04:45:02.761Z,926.35
2019-03-04T04:46:34.571Z,926.36
2019-03-04T04:48:06.384Z,926.32
2019-03-04T04:49:38.197Z,926.30
2019-03-04T04:51:10.011Z,926.33
2019-03-04T04:52:41.925Z,926.26
2019-03-04T04:54:13.694Z,926.24
2019-03-04T04:55:45.452Z,926.21
2019-03-04T04:57:17.267Z,926.17
2019-03-04T04:58:49.080Z,926.14
2019-03-04T05:00:20.896Z,926.08
2019-03-04T05:01:52.708Z,926.09
2019-03-04T05:03:24.521Z,926.05
2019-03-04T05:04:56.335Z,925.94
2019-03-04T05:06:28.153Z,925.93
2019-03-04T05:07:59.968Z,925.86
2019-03-04T05:09:31.777Z,925.85
2019-03-04T05:11:03.691Z,925.80
2019-03-04T05:12:35.405Z,925.79
2019-03-04T05:14:07.219Z,925.79
2019-03-04T05:15:39.032Z,925.80
2019-03-04T05:17:10.850Z,925.82
2019-03-04T05:18:42.661Z,925.78
2019-03-04T05:20:14.480Z,925.76
2019-03-04T05:21:46.288Z,925.71
2019-03-04T05:23:18.103Z,925.63
2019-03-04T05:24:49.914Z,925.59
2019-03-04T05:26:21.744Z,925.46
2019-03-04T05:27:53.541Z,925.40
2019-03-04T05:29:25.540Z,925.30
2019-03-04T05:30:57.169Z,925.22
2019-03-04T05:32:28.982Z,925.16
2019-03-04T05:34:00.796Z,925.00
2019-03-04T05:35:32.609Z,924.82
2019-03-04T05:37:04.424Z,924.62
2019-03-04T05:38:36.237Z,924.57
2019-03-04T05:40:08.051Z,924.60
2019-03-04T05:41:39.863Z,924.61
2019-03-04T05:43:11.676Z,924.65
2019-03-04T05:44:43.490Z,924.82
2019-03-04T05:46:15.303Z,924.86
2019-03-04T05:47:47.217Z,924.90
2019-03-04T05:49:18.930Z,924.97
2019-03-04T05:50:50.743Z,925.04
2019-03-04T05:52:22.557Z,925.06
2019-03-04T05:53:54.370Z,925.08
2019-03-04T05:55:26.185Z,925.01
2019-03-04T05:56:57.997Z,924.96
2019-03-04T05:58:29.810Z,924.90
2019-03-04T06:00:01.624Z,924.89
2019-03-04T06:01:33.439Z,924.93
2019-03-04T06:03:05.250Z,924.91
2019-03-04T06:04:37.067Z,924.92
2019-03-04T06:06:08.979Z,924.98
2019-03-04T06:07:41.215Z,924.98
2019-03-04T06:09:12.504Z,924.98
2019-03-04T06:10:44.316Z,924.96
2019-03-04T06:12:16.130Z,924.94
2019-03-04T06:13:47.944Z,924.89
2019-03-04T06:15:19.759Z,924.88
2019-03-04T06:16:51.571Z,924.81
2019-03-04T06:18:23.385Z,924.82
2019-03-04T06:19:55.201Z,924.77
2019-03-04T06:21:27.013Z,924.78
2019-03-04T06:22:58.828Z,924.77
2019-03-04T06:24:30.741Z,924.76
2019-03-04T06:26:02.462Z,924.83
2019-03-04T06:27:34.270Z,924.82
2019-03-04T06:29:06.082Z,924.86
2019-03-04T06:30:37.898Z,924.86
2019-03-04T06:32:09.716Z,924.85
2019-03-04T06:33:41.523Z,924.77
2019-03-04T06:35:13.338Z,924.74
2019-03-04T06:36:45.151Z,924.69
2019-03-04T06:38:16.964Z,924.67
2019-03-04T06:39:48.778Z,924.61
2019-03-04T06:41:20.591Z,924.59
2019-03-04T06:42:52.605Z,924.63
2019-03-04T06:44:24.220Z,924.64
2019-03-04T06:45:56.053Z,924.65
2019-03-04T06:47:27.844Z,924.73
2019-03-04T06:48:59.658Z,924.79
2019-03-04T06:50:31.472Z,924.86
2019-03-04T06:52:03.285Z,924.88
2019-03-04T06:53:35.099Z,924.89
2019-03-04T06:55:06.919Z,924.91
2019-03-04T06:56:38.726Z,924.96
2019-03-04T06:58:10.543Z,924.98
2019-03-04T06:59:42.352Z,924.99
2019-03-04T07:01:14.468Z,925.02
2019-03-04T07:02:45.978Z,924.99
2019-03-04T07:04:17.790Z,925.00
2019-03-04T07:05:49.611Z,925.06
2019-03-04T07:07:21.417Z,925.06
2019-03-04T07:08:53.231Z,925.07
2019-03-04T07:10:25.047Z,925.09
2019-03-04T07:11:56.859Z,925.06
2019-03-04T07:13:28.671Z,925.10
2019-03-04T07:15:00.483Z,925.15
2019-03-04T07:16:32.361Z,925.14
2019-03-04T07:18:04.112Z,925.18
2019-03-04T07:19:36.025Z,925.17
2019-03-04T07:21:07.739Z,925.20
2019-03-04T07:22:39.552Z,925.15
2019-03-04T07:24:11.365Z,925.12
2019-03-04T07:25:43.179Z,925.21
2019-03-04T07:27:14.991Z,925.21
2019-03-04T07:28:46.805Z,925.24
2019-03-04T07:30:18.618Z,925.24
2019-03-04T07:31:50.431Z,925.30
2019-03-04T07:33:22.245Z,925.32
2019-03-04T07:34:54.060Z,925.36
2019-03-04T07:36:25.876Z,925.42
2019-03-04T07:37:57.787Z,925.40
2019-03-04T07:39:29.504Z,925.44
2019-03-04T07:41:01.313Z,925.50
2019-03-04T07:42:33.126Z,925.57
2019-03-04T07:44:04.940Z,925.56
2019-03-04T07:45:36.754Z,925.57
2019-03-04T07:47:08.567Z,925.58
2019-03-04T07:48:40.380Z,925.66
2019-03-04T07:50:12.194Z,925.72
2019-03-04T07:51:44.008Z,925.74
2019-03-04T07:53:15.827Z,925.74
2019-03-04T07:54:47.637Z,925.74
2019-03-04T07:56:19.553Z,925.68
2019-03-04T07:57:51.261Z,925.60
2019-03-04T07:59:23.075Z,925.52
2019-03-04T08:00:54.888Z,925.53
2019-03-04T08:02:26.952Z,925.51
2019-03-04T08:03:58.515Z,925.53
2019-03-04T08:05:30.328Z,925.57
2019-03-04T08:07:02.142Z,925.53
2019-03-04T08:08:33.955Z,925.51
2019-03-04T08:10:05.768Z,925.49
2019-03-04T08:11:37.582Z,925.42
2019-03-04T08:13:09.397Z,925.38
2019-03-04T08:14:41.312Z,925.47
2019-03-04T08:16:13.023Z,925.50
2019-03-04T08:17:44.836Z,925.58
2019-03-04T08:19:16.660Z,925.54
2019-03-04T08:20:48.462Z,925.50
2019-03-04T08:22:20.276Z,925.53
2019-03-04T08:23:52.089Z,925.51
2019-03-04T08:25:23.909Z,925.57
2019-03-04T08:26:55.716Z,925.59
2019-03-04T08:28:27.529Z,925.68
2019-03-04T08:29:59.343Z,925.70
2019-03-04T08:31:31.155Z,925.75
2019-03-04T08:33:03.072Z,925.85
2019-03-04T08:34:34.782Z,925.84
2019-03-04T08:36:06.595Z,925.83
2019-03-04T08:37:38.411Z,925.86
2019-03-04T08:39:10.223Z,925.86
2019-03-04T08:40:42.034Z,925.86
2019-03-04T08:42:13.847Z,925.85
2019-03-04T08:43:45.660Z,925.89
2019-03-04T08:45:17.473Z,925.87
2019-03-04T08:46:49.286Z,925.87
2019-03-04T08:48:21.103Z,925.89
2019-03-04T08:49:52.913Z,925.91
2019-03-04T08:51:24.826Z,925.90
2019-03-04T08:52:56.540Z,925.93
2019-03-04T08:54:28.352Z,925.96
2019-03-04T08:56:00.165Z,925.97
2019-03-04T08:57:31.979Z,926.00
2019-03-04T08:59:03.792Z,926.03
2019-03-04T09:00:35.605Z,926.08
2019-03-04T09:02:07.418Z,926.10
2019-03-04T09:03:39.233Z,926.11
2019-03-04T09:05:11.047Z,926.11
2019-03-04T09:06:42.858Z,926.12
2019-03-04T09:08:14.672Z,926.16
2019-03-04T09:09:46.585Z,926.19
2019-03-04T09:11:18.304Z,926.13
2019-03-04T09:12:50.114Z,926.10
2019-03-04T09:14:21.924Z,926.09
2019-03-04T09:15:53.738Z,926.11
2019-03-04T09:17:25.551Z,926.14
2019-03-04T09:18:57.365Z,926.17
2019-03-04T09:20:29.184Z,926.19
2019-03-04T09:22:00.992Z,926.29
2019-03-04T09:23:32.805Z,926.36
2019-03-04T09:25:04.618Z,926.30
2019-03-04T09:28:08.546Z,926.44
2019-03-04T09:29:40.362Z,926.47
2019-03-04T09:31:11.872Z,926.46
2019-03-04T09:32:43.685Z,926.49
2019-03-04T09:34:15.498Z,926.46
2019-03-04T09:35:47.313Z,926.46
2019-03-04T09:37:19.125Z,926.53
2019-03-04T09:38:50.941Z,926.50
2019-03-04T09:40:22.853Z,926.53
2019-03-04T09:41:54.568Z,926.59
2019-03-04T09:43:26.381Z,926.63
2019-03-04T09:44:58.398Z,926.66
2019-03-04T09:46:30.108Z,926.71
2019-03-04T09:48:01.823Z,926.75
2019-03-04T09:49:33.637Z,926.76
2019-03-04T09:51:05.451Z,926.75
2019-03-04T09:52:37.265Z,926.77
2019-03-04T09:54:09.084Z,926.73
2019-03-04T09:55:40.895Z,926.73
2019-03-04T09:57:12.710Z,926.76
2019-03-04T09:58:44.523Z,926.74
2019-03-04T10:00:16.337Z,926.80
2019-03-04T10:01:48.355Z,926.78
2019-03-04T10:03:19.966Z,926.81
2019-03-04T10:04:52.334Z,926.90
2019-03-04T10:06:23.595Z,926.93
2019-03-04T10:07:55.410Z,926.94
2019-03-04T10:09:27.226Z,927.02
2019-03-04T10:10:59.040Z,926.95
2019-03-04T10:12:30.855Z,926.94
2019-03-04T10:14:02.671Z,926.99
2019-03-04T10:15:34.490Z,926.99
2019-03-04T10:17:06.301Z,926.97
2019-03-04T10:20:09.932Z,927.04
2019-03-04T10:21:41.748Z,927.06
2019-03-04T10:23:13.671Z,927.09
2019-03-04T10:24:45.381Z,927.17
2019-03-04T10:26:22.574Z,927.13
2019-03-04T10:27:49.014Z,927.15
2019-03-04T10:29:20.831Z,927.20
2019-03-04T10:30:52.647Z,927.28
2019-03-04T10:32:24.464Z,927.24
2019-03-04T10:36:59.920Z,927.21
2019-03-04T10:38:31.739Z,927.25
2019-03-04T10:40:03.556Z,927.36
2019-03-04T10:41:35.374Z,927.43
2019-03-04T10:43:07.292Z,927.43
2019-03-04T10:44:39.017Z,927.49
2019-03-04T10:46:10.830Z,927.52
2019-03-04T10:47:42.649Z,927.54
2019-03-04T10:49:14.468Z,927.56
2019-03-04T10:50:46.289Z,927.51
2019-03-04T10:52:18.107Z,927.54
2019-03-04T10:53:50.135Z,927.57
2019-03-04T10:55:22.050Z,927.58
2019-03-04T10:56:53.569Z,927.58
2019-03-04T10:58:25.394Z,927.64
2019-03-04T10:59:57.205Z,927.66
2019-03-04T11:01:30.627Z,927.70
2019-03-04T11:03:00.842Z,927.76
2019-03-04T11:04:32.661Z,927.74
2019-03-04T11:06:04.483Z,927.66
2019-03-04T11:07:36.303Z,927.67
2019-03-04T11:09:08.124Z,927.70
2019-03-04T11:10:39.945Z,927.74
2019-03-04T11:12:14.019Z,927.73
2019-03-04T11:13:43.685Z,927.79
2019-03-04T11:15:15.404Z,927.79
2019-03-04T11:16:47.228Z,927.80
2019-03-04T11:18:19.044Z,927.82
2019-03-04T11:19:50.964Z,927.84
2019-03-04T11:21:22.684Z,927.85
2019-03-04T11:22:54.507Z,927.90
2019-03-04T11:24:26.326Z,927.99
2019-03-04T11:25:58.146Z,927.95
2019-03-04T11:27:29.969Z,927.92
2019-03-04T11:29:01.791Z,927.96
2019-03-04T11:30:33.617Z,927.90
2019-03-04T11:32:05.444Z,927.99
2019-03-04T11:33:37.257Z,928.06
2019-03-04T11:35:09.079Z,928.12
2019-03-04T11:36:40.902Z,928.11
2019-03-04T11:38:12.825Z,928.13
2019-03-04T11:39:44.546Z,928.07
2019-03-04T11:41:16.396Z,928.16
2019-03-04T11:42:50.470Z,928.19
2019-03-04T11:44:20.017Z,928.23
2019-03-04T11:45:51.840Z,928.26
2019-03-04T11:47:23.665Z,928.38
2019-03-04T11:48:55.487Z,928.44
2019-03-04T11:50:27.314Z,928.42
2019-03-04T11:51:59.137Z,928.43
2019-03-04T11:53:30.957Z,928.49
2019-03-04T11:55:02.785Z,928.53
2019-03-04T11:56:34.703Z,928.57
2019-03-04T11:58:06.431Z,928.64
2019-03-04T11:59:38.248Z,928.64
2019-03-04T12:01:10.069Z,928.57
2019-03-04T12:02:41.904Z,928.62
2019-03-04T12:04:13.713Z,928.68
2019-03-04T12:05:45.535Z,928.64
2019-03-04T12:07:17.357Z,928.69
2019-03-04T12:08:49.179Z,928.66
2019-03-04T12:10:21.001Z,928.69
2019-03-04T12:11:52.823Z,928.61
2019-03-04T12:13:24.643Z,928.61
2019-03-04T12:14:56.567Z,928.63
2019-03-04T12:16:28.293Z,928.59
2019-03-04T12:18:00.108Z,928.51
2019-03-04T12:19:31.936Z,928.51
2019-03-04T12:21:03.753Z,928.47
2019-03-04T12:22:35.577Z,928.38
2019-03-04T12:24:07.399Z,928.46
2019-03-04T12:25:39.222Z,928.49
2019-03-04T12:27:11.046Z,928.47
2019-03-04T12:28:42.868Z,928.49
2019-03-04T12:30:14.691Z,928.54
2019-03-04T12:31:46.514Z,928.50
2019-03-04T12:33:18.438Z,928.60
2019-03-04T12:34:50.162Z,928.55
2019-03-04T12:36:21.986Z,928.59
2019-03-04T12:37:53.811Z,928.58
2019-03-04T12:39:25.636Z,928.55
2019-03-04T12:40:57.461Z,928.52
2019-03-04T12:42:29.287Z,928.51
2019-03-04T12:44:01.111Z,928.51
2019-03-04T12:45:34.689Z,928.56
2019-03-04T12:47:04.766Z,928.55
2019-03-04T12:48:36.587Z,928.57
2019-03-04T12:50:08.415Z,928.55
2019-03-04T12:53:12.164Z,928.63
2019-03-04T12:54:44.196Z,928.60
2019-03-04T12:56:15.714Z,928.56
2019-03-04T12:57:47.540Z,928.55
2019-03-04T12:59:19.368Z,928.53
2019-03-04T13:00:51.192Z,928.54
2019-03-04T13:02:23.019Z,928.59
2019-03-04T13:03:54.849Z,928.54
2019-03-04T13:05:26.674Z,928.53
2019-03-04T13:06:58.502Z,928.54
2019-03-04T13:08:30.328Z,928.60
2019-03-04T13:11:34.084Z,928.63
2019-03-04T13:13:05.812Z,928.58
2019-03-04T13:14:37.661Z,928.60
2019-03-04T13:16:09.463Z,928.69
2019-03-04T13:17:41.293Z,928.55
2019-03-04T13:19:13.116Z,928.62
2019-03-04T13:20:44.942Z,928.69
2019-03-04T13:22:16.769Z,928.65
2019-03-04T13:23:48.595Z,928.59
2019-03-04T13:25:20.421Z,928.61
2019-03-04T13:26:52.247Z,928.58
2019-03-04T13:28:24.072Z,928.63
2019-03-04T13:29:56.202Z,928.62
2019-03-04T13:31:27.726Z,928.58
2019-03-04T13:32:59.564Z,928.59
2019-03-04T13:34:31.382Z,928.52
2019-03-04T13:36:03.210Z,928.51
2019-03-04T13:37:35.037Z,928.54
2019-03-04T13:39:06.867Z,928.55
2019-03-04T13:40:38.694Z,928.61
2019-03-04T13:42:10.523Z,928.58
2019-03-04T13:43:42.355Z,928.60
2019-03-04T13:45:14.184Z,928.72
2019-03-04T13:46:46.011Z,928.63
2019-03-04T13:48:17.943Z,928.53
2019-03-04T13:49:49.978Z,928.58
2019-03-04T13:51:21.500Z,928.66
2019-03-04T13:52:53.329Z,928.60
2019-03-04T13:54:25.159Z,928.76
2019-03-04T13:55:56.989Z,928.68
2019-03-04T13:57:28.820Z,928.58
2019-03-04T13:59:00.651Z,928.44
2019-03-04T14:00:32.484Z,928.44
2019-03-04T14:02:04.308Z,928.49
2019-03-04T14:03:36.136Z,928.45
2019-03-04T14:05:07.965Z,928.61
2019-03-04T14:08:11.718Z,928.57
2019-03-04T14:09:43.442Z,928.67
2019-03-04T14:12:47.094Z,928.92
2019-03-04T14:14:18.925Z,928.97
2019-03-04T14:15:50.749Z,929.01
2019-03-04T14:17:22.570Z,929.10
2019-03-04T14:18:54.397Z,929.02
2019-03-04T14:20:26.224Z,929.04
2019-03-04T14:21:58.046Z,929.04
2019-03-04T14:23:29.875Z,929.03
2019-03-04T14:25:02.164Z,929.08
2019-03-04T14:26:33.825Z,929.07
2019-03-04T14:28:05.347Z,929.10
2019-03-04T14:29:37.581Z,929.08
2019-03-04T14:31:09.647Z,929.05
2019-03-04T14:32:41.259Z,929.10
2019-03-04T14:34:12.994Z,929.13
2019-03-04T14:35:44.474Z,929.14
2019-03-04T14:37:16.298Z,929.14
2019-03-04T14:38:48.121Z,929.15
2019-03-04T14:40:19.947Z,929.03
2019-03-04T14:41:51.772Z,928.96
2019-03-04T14:43:23.854Z,928.87
2019-03-04T14:44:56.352Z,928.83
2019-03-04T14:46:27.294Z,928.85
2019-03-04T14:47:59.873Z,928.86
2019-03-04T14:49:31.320Z,928.66
2019-03-04T14:51:02.750Z,928.63
2019-03-04T14:52:34.773Z,928.62
2019-03-04T14:54:08.523Z,928.67
2019-03-04T14:55:38.225Z,928.71
2019-03-04T14:57:10.496Z,928.65
2019-03-04T14:58:41.883Z,928.61
2019-03-04T15:00:13.715Z,928.51
2019-03-04T15:01:45.543Z,928.49
2019-03-04T15:03:23.178Z,928.51
2019-03-04T15:04:49.198Z,928.38
2019-03-04T15:06:21.145Z,928.42
2019-03-04T15:07:53.195Z,928.52
2019-03-04T15:09:26.241Z,928.49
2019-03-04T15:11:22.657Z,928.63
2019-03-04T15:12:28.895Z,928.54
2019-03-04T15:14:01.315Z,928.67
2019-03-04T15:15:32.471Z,928.65
2019-03-04T15:24:30.847Z,928.36
2019-03-04T15:25:21.003Z,928.37
2019-03-04T15:26:50.961Z,928.39
2019-03-04T15:28:22.611Z,928.27
2019-03-04T15:29:54.413Z,928.24
2019-03-04T15:31:26.374Z,928.29
2019-03-04T15:32:58.067Z,928.14
2019-03-04T15:34:29.930Z,928.11
2019-03-04T15:36:01.718Z,928.17
2019-03-04T15:37:33.757Z,928.05
2019-03-04T15:39:05.467Z,928.03
2019-03-04T15:40:37.190Z,927.95
2019-03-04T15:42:09.014Z,927.91
2019-03-04T15:43:40.838Z,927.85
2019-03-04T15:45:12.863Z,927.88
2019-03-04T15:46:44.485Z,927.87
2019-03-04T15:48:16.307Z,927.80
2019-03-04T15:49:48.130Z,927.91
2019-03-04T15:51:19.952Z,927.87
2019-03-04T15:52:51.775Z,927.93
2019-03-04T15:54:23.596Z,927.87
2019-03-04T15:55:55.417Z,927.78
2019-03-04T15:57:27.338Z,927.75
2019-03-04T15:58:59.060Z,927.76
2019-03-04T16:00:30.881Z,927.68
2019-03-04T16:03:36.612Z,927.58
2019-03-04T16:05:06.644Z,927.55
2019-03-04T16:06:38.160Z,927.56
2019-03-04T16:08:09.981Z,927.57
2019-03-04T16:09:42.051Z,927.73
2019-03-04T16:12:45.441Z,928.03
2019-03-04T16:14:17.514Z,928.01
2019-03-04T16:15:49.745Z,927.93
2019-03-04T16:17:21.232Z,928.03
2019-03-04T16:18:52.789Z,927.89
2019-03-04T16:21:57.057Z,927.67
2019-03-04T16:23:28.226Z,927.65
2019-03-04T16:25:00.392Z,927.44
2019-03-04T16:26:31.835Z,927.40
2019-03-04T16:28:03.655Z,927.30
2019-03-04T16:29:37.327Z,927.25
2019-03-04T16:31:07.298Z,927.19
2019-03-04T16:32:39.121Z,927.17
2019-03-04T16:34:11.043Z,927.28
2019-03-04T16:35:42.762Z,927.38
2019-03-04T16:38:46.406Z,927.45
2019-03-04T16:40:18.679Z,927.47
2019-03-04T16:41:50.048Z,927.72
2019-03-04T16:43:21.870Z,927.80
2019-03-04T16:44:53.699Z,927.86
2019-03-04T16:46:26.171Z,927.88
2019-03-04T16:47:57.612Z,927.78
2019-03-04T16:49:29.310Z,927.73
2019-03-04T16:51:01.010Z,927.65
2019-03-04T16:52:32.907Z,927.56
2019-03-04T16:54:04.630Z,927.41
2019-03-04T16:55:36.459Z,927.47
2019-03-04T16:57:08.806Z,927.41
2019-03-04T16:58:40.414Z,927.51
2019-03-04T17:00:11.929Z,927.46
2019-03-04T17:01:43.755Z,927.50
2019-03-04T17:03:15.582Z,927.50
2019-03-04T17:04:47.413Z,927.48
2019-03-04T17:06:19.236Z,927.40
2019-03-04T17:07:51.266Z,927.25
2019-03-04T17:09:22.893Z,927.12
2019-03-04T17:10:55.072Z,926.90
2019-03-04T17:12:26.548Z,926.68
2019-03-04T17:13:58.378Z,926.61
2019-03-04T17:15:30.409Z,926.60
2019-03-04T17:17:02.064Z,926.57
2019-03-04T17:18:33.988Z,926.62
2019-03-04T17:20:05.801Z,926.55
2019-03-04T17:21:37.516Z,926.50
2019-03-04T17:23:09.731Z,926.48
2019-03-04T17:24:41.916Z,926.42
2019-03-04T17:26:13.579Z,926.32
2019-03-04T17:27:44.819Z,926.32
2019-03-04T17:29:16.741Z,926.39
2019-03-04T17:30:48.473Z,926.43
2019-03-04T17:33:52.113Z,926.61
2019-03-04T17:35:23.940Z,926.75
2019-03-04T17:36:55.963Z,926.71
2019-03-04T17:38:27.888Z,926.53
2019-03-04T17:39:59.406Z,926.43
2019-03-04T17:41:31.657Z,926.45
2019-03-04T17:43:03.056Z,926.46
2019-03-04T17:44:34.876Z,926.44
2019-03-04T17:46:06.698Z,926.58
2019-03-04T17:47:38.629Z,926.74
2019-03-04T17:49:10.349Z,926.72
2019-03-04T17:50:42.169Z,926.85
2019-03-04T17:52:14.301Z,926.80
2019-03-04T17:53:45.997Z,926.61
2019-03-04T17:55:17.644Z,926.48
2019-03-04T17:56:49.943Z,926.60
2019-03-04T17:58:22.040Z,926.73
2019-03-04T17:59:53.504Z,926.64
2019-03-04T18:01:25.049Z,926.64
2019-03-04T18:02:56.777Z,926.66
2019-03-04T18:06:00.604Z,926.68
2019-03-04T18:07:32.697Z,926.42
2019-03-04T18:09:04.660Z,926.26
2019-03-04T18:10:37.020Z,926.21
2019-03-04T18:12:08.080Z,926.27
2019-03-04T18:13:39.774Z,926.25
2019-03-04T18:15:11.376Z,926.15
2019-03-04T18:16:43.196Z,926.32
2019-03-04T18:18:15.194Z,926.42
2019-03-04T18:21:18.665Z,926.34
2019-03-04T18:22:50.488Z,926.35
2019-03-04T18:24:22.717Z,926.24
2019-03-04T18:25:54.151Z,926.19
2019-03-04T18:27:25.956Z,926.28
2019-03-04T18:28:58.042Z,926.35
2019-03-04T18:30:29.602Z,926.32
2019-03-04T18:32:01.426Z,926.36
2019-03-04T18:33:33.246Z,926.36
2019-03-04T18:35:05.067Z,926.43
2019-03-04T18:36:36.889Z,926.49
2019-03-04T18:38:08.766Z,926.49
2019-03-04T18:39:40.737Z,926.58
2019-03-04T18:41:12.878Z,926.63
2019-03-04T18:42:44.800Z,926.57
2019-03-04T18:45:47.820Z,926.69
2019-03-04T18:47:19.945Z,926.57
2019-03-04T18:48:51.462Z,926.51
2019-03-04T18:50:23.317Z,926.34
2019-03-04T18:51:55.106Z,926.16
2019-03-04T18:53:26.929Z,926.03
2019-03-04T18:54:58.749Z,925.99
2019-03-04T18:58:02.393Z,926.10
2019-03-04T18:59:34.214Z,926.07
2019-03-04T19:01:06.135Z,926.12
2019-03-04T19:02:37.856Z,926.15
2019-03-04T19:04:09.678Z,926.13
2019-03-04T19:05:41.701Z,926.15
2019-03-04T19:07:13.320Z,926.07
2019-03-04T19:08:45.141Z,926.10
2019-03-04T19:10:16.963Z,926.13
2019-03-04T19:11:48.785Z,926.25
2019-03-04T19:14:52.427Z,926.00
2019-03-04T19:16:24.249Z,925.95
2019-03-04T19:17:56.069Z,925.96
2019-03-04T19:19:27.891Z,925.96
2019-03-04T19:20:59.813Z,926.08
2019-03-04T19:22:31.532Z,926.11
2019-03-04T19:24:03.353Z,926.15
2019-03-04T19:25:35.173Z,926.13
2019-03-04T19:27:06.993Z,926.13
2019-03-04T19:28:38.814Z,926.10
2019-03-04T19:30:10.634Z,926.00
2019-03-04T19:31:42.667Z,926.01
2019-03-04T19:33:14.579Z,926.11
2019-03-04T19:34:46.094Z,926.20
2019-03-04T19:36:17.914Z,926.30
2019-03-04T19:37:49.739Z,926.23
2019-03-04T19:39:21.654Z,926.19